sensor_id;sensor_type;location;lat;lon;timestamp;pressure;altitude;pressure_sealevel;temperature;humidity
19236;BME280;9752;54.270;12.470;2022-07-05T00:04:40;101827.34;;;13.41;100.00
19236;BME280;9752;54.270;12.470;2022-07-05T00:09:43;101832.50;;;13.14;100.00
19236;BME280;9752;54.270;12.470;2022-07-05T00:14:46;101823.38;;;12.94;100.00
19236;BME280;9752;54.270;12.470;2022-07-05T00:19:48;101827.19;;;12.61;100.00
19236;BME280;9752;54.270;12.470;2022-07-05T00:24:51;101823.53;;;12.70;100.00
19236;BME280;9752;54.270;12.470;2022-07-05T00:29:52;101814.53;;;12.65;100.00
19236;BME280;9752;54.270;12.470;2022-07-05T00:34:55;101813.44;;;12.50;100.00
19236;BME280;9752;54.270;12.470;2022-07-05T00:39:58;101816.06;;;12.25;100.00
19236;BME280;9752;54.270;12.470;2022-07-05T00:45:03;101809.72;;;11.96;100.00
19236;BME280;9752;54.270;12.470;2022-07-05T00:50:06;101813.47;;;11.76;100.00
19236;BME280;9752;54.270;12.470;2022-07-05T00:55:09;101803.53;;;11.70;100.00
19236;BME280;9752;54.270;12.470;2022-07-05T01:00:12;101801.75;;;11.58;100.00
19236;BME280;9752;54.270;12.470;2022-07-05T01:05:13;101797.56;;;11.36;100.00
19236;BME280;9752;54.270;12.470;2022-07-05T01:10:17;101797.69;;;11.26;100.00
19236;BME280;9752;54.270;12.470;2022-07-05T01:15:20;101793.28;;;11.13;100.00
19236;BME280;9752;54.270;12.470;2022-07-05T01:20:23;101788.34;;;11.16;100.00
19236;BME280;9752;54.270;12.470;2022-07-05T01:25:28;101778.84;;;11.28;100.00
19236;BME280;9752;54.270;12.470;2022-07-05T01:30:34;101785.72;;;11.40;100.00
19236;BME280;9752;54.270;12.470;2022-07-05T01:35:36;101777.16;;;11.41;100.00
19236;BME280;9752;54.270;12.470;2022-07-05T01:40:40;101781.66;;;11.31;100.00
19236;BME280;9752;54.270;12.470;2022-07-05T01:45:43;101790.47;;;11.33;100.00
19236;BME280;9752;54.270;12.470;2022-07-05T01:50:48;101780.78;;;11.31;100.00
19236;BME280;9752;54.270;12.470;2022-07-05T01:55:51;101797.94;;;11.29;100.00
19236;BME280;9752;54.270;12.470;2022-07-05T02:00:54;101793.41;;;11.26;100.00
19236;BME280;9752;54.270;12.470;2022-07-05T02:05:59;101794.97;;;11.36;100.00
19236;BME280;9752;54.270;12.470;2022-07-05T02:11:04;101792.16;;;11.45;100.00
19236;BME280;9752;54.270;12.470;2022-07-05T02:16:06;101791.34;;;11.58;100.00
19236;BME280;9752;54.270;12.470;2022-07-05T02:21:08;101794.06;;;11.59;100.00
19236;BME280;9752;54.270;12.470;2022-07-05T02:26:11;101789.78;;;11.60;100.00
19236;BME280;9752;54.270;12.470;2022-07-05T02:31:15;101784.88;;;11.64;100.00
19236;BME280;9752;54.270;12.470;2022-07-05T02:36:21;101794.06;;;11.59;100.00
19236;BME280;9752;54.270;12.470;2022-07-05T02:41:25;101789.31;;;11.65;100.00
19236;BME280;9752;54.270;12.470;2022-07-05T02:46:27;101790.22;;;11.54;100.00
19236;BME280;9752;54.270;12.470;2022-07-05T02:51:32;101798.47;;;11.60;100.00
19236;BME280;9752;54.270;12.470;2022-07-05T02:56:36;101796.22;;;11.65;100.00
19236;BME280;9752;54.270;12.470;2022-07-05T03:01:42;101801.69;;;11.81;100.00
19236;BME280;9752;54.270;12.470;2022-07-05T03:06:48;101803.28;;;12.03;100.00
19236;BME280;9752;54.270;12.470;2022-07-05T03:11:51;101797.59;;;12.08;100.00
19236;BME280;9752;54.270;12.470;2022-07-05T03:16:53;101801.41;;;12.14;100.00
19236;BME280;9752;54.270;12.470;2022-07-05T03:21:57;101806.28;;;12.09;100.00
19236;BME280;9752;54.270;12.470;2022-07-05T03:27:00;101805.28;;;12.07;100.00
19236;BME280;9752;54.270;12.470;2022-07-05T03:32:03;101802.44;;;12.04;100.00
19236;BME280;9752;54.270;12.470;2022-07-05T03:37:05;101802.63;;;12.19;100.00
19236;BME280;9752;54.270;12.470;2022-07-05T03:42:08;101804.16;;;12.28;100.00
19236;BME280;9752;54.270;12.470;2022-07-05T03:47:10;101802.56;;;12.30;100.00
19236;BME280;9752;54.270;12.470;2022-07-05T03:52:12;101803.50;;;12.44;100.00
19236;BME280;9752;54.270;12.470;2022-07-05T03:57:17;101808.88;;;12.59;100.00
19236;BME280;9752;54.270;12.470;2022-07-05T04:02:19;101810.22;;;12.66;100.00
19236;BME280;9752;54.270;12.470;2022-07-05T04:07:21;101809.84;;;12.73;100.00
19236;BME280;9752;54.270;12.470;2022-07-05T04:12:25;101812.53;;;12.88;100.00
19236;BME280;9752;54.270;12.470;2022-07-05T04:17:27;101810.88;;;13.02;100.00
19236;BME280;9752;54.270;12.470;2022-07-05T04:22:30;101800.91;;;13.35;100.00
19236;BME280;9752;54.270;12.470;2022-07-05T04:27:34;101794.97;;;13.64;100.00
19236;BME280;9752;54.270;12.470;2022-07-05T04:32:36;101794.03;;;13.77;100.00
19236;BME280;9752;54.270;12.470;2022-07-05T04:37:39;101800.44;;;13.82;100.00
19236;BME280;9752;54.270;12.470;2022-07-05T04:42:43;101808.38;;;13.83;100.00
19236;BME280;9752;54.270;12.470;2022-07-05T04:47:47;101797.22;;;13.86;100.00
19236;BME280;9752;54.270;12.470;2022-07-05T04:52:50;101808.66;;;14.16;100.00
19236;BME280;9752;54.270;12.470;2022-07-05T04:57:53;101802.78;;;14.49;100.00
19236;BME280;9752;54.270;12.470;2022-07-05T05:02:55;101817.72;;;14.36;100.00
19236;BME280;9752;54.270;12.470;2022-07-05T05:07:56;101814.22;;;14.51;100.00
19236;BME280;9752;54.270;12.470;2022-07-05T05:12:59;101811.31;;;15.19;100.00
19236;BME280;9752;54.270;12.470;2022-07-05T05:18:01;101822.16;;;15.56;100.00
19236;BME280;9752;54.270;12.470;2022-07-05T05:23:03;101823.19;;;15.29;100.00
19236;BME280;9752;54.270;12.470;2022-07-05T05:28:06;101822.25;;;14.97;100.00
19236;BME280;9752;54.270;12.470;2022-07-05T05:33:08;101818.00;;;14.69;100.00
19236;BME280;9752;54.270;12.470;2022-07-05T05:38:10;101829.16;;;14.67;100.00
19236;BME280;9752;54.270;12.470;2022-07-05T05:43:13;101826.97;;;15.34;100.00
19236;BME280;9752;54.270;12.470;2022-07-05T05:48:15;101828.31;;;16.70;100.00
19236;BME280;9752;54.270;12.470;2022-07-05T05:53:17;101846.59;;;16.85;100.00
19236;BME280;9752;54.270;12.470;2022-07-05T05:58:21;101840.81;;;17.63;100.00
19236;BME280;9752;54.270;12.470;2022-07-05T06:03:26;101851.56;;;17.49;100.00
19236;BME280;9752;54.270;12.470;2022-07-05T06:08:28;101849.09;;;17.00;100.00
19236;BME280;9752;54.270;12.470;2022-07-05T06:13:31;101853.94;;;16.59;100.00
19236;BME280;9752;54.270;12.470;2022-07-05T06:18:33;101857.97;;;16.86;100.00
19236;BME280;9752;54.270;12.470;2022-07-05T06:23:34;101872.16;;;17.60;100.00
19236;BME280;9752;54.270;12.470;2022-07-05T06:28:37;101872.44;;;17.66;100.00
19236;BME280;9752;54.270;12.470;2022-07-05T06:33:39;101877.44;;;16.74;100.00
19236;BME280;9752;54.270;12.470;2022-07-05T06:38:41;101883.50;;;17.06;100.00
19236;BME280;9752;54.270;12.470;2022-07-05T06:43:44;101880.56;;;16.51;100.00
19236;BME280;9752;54.270;12.470;2022-07-05T06:48:55;101876.28;;;16.20;100.00
19236;BME280;9752;54.270;12.470;2022-07-05T06:53:56;101878.28;;;16.57;100.00
19236;BME280;9752;54.270;12.470;2022-07-05T06:59:00;101877.69;;;17.66;100.00
19236;BME280;9752;54.270;12.470;2022-07-05T07:04:01;101892.84;;;17.71;100.00
19236;BME280;9752;54.270;12.470;2022-07-05T07:09:03;101891.69;;;16.63;100.00
19236;BME280;9752;54.270;12.470;2022-07-05T07:14:23;101887.53;;;17.52;100.00
19236;BME280;9752;54.270;12.470;2022-07-05T07:19:24;101887.97;;;17.97;100.00
19236;BME280;9752;54.270;12.470;2022-07-05T07:24:26;101892.69;;;17.50;100.00
19236;BME280;9752;54.270;12.470;2022-07-05T07:29:30;101890.13;;;17.52;100.00
19236;BME280;9752;54.270;12.470;2022-07-05T07:34:32;101899.00;;;17.72;100.00
19236;BME280;9752;54.270;12.470;2022-07-05T07:39:35;101896.00;;;17.64;100.00
19236;BME280;9752;54.270;12.470;2022-07-05T07:44:38;101906.19;;;18.12;100.00
19236;BME280;9752;54.270;12.470;2022-07-05T07:49:39;101910.16;;;18.04;100.00
19236;BME280;9752;54.270;12.470;2022-07-05T07:54:42;101913.03;;;18.46;100.00
19236;BME280;9752;54.270;12.470;2022-07-05T07:59:45;101923.91;;;18.36;100.00
19236;BME280;9752;54.270;12.470;2022-07-05T08:04:46;101927.22;;;18.31;100.00
19236;BME280;9752;54.270;12.470;2022-07-05T08:09:49;101931.47;;;17.92;100.00
19236;BME280;9752;54.270;12.470;2022-07-05T08:14:53;101934.56;;;18.01;100.00
19236;BME280;9752;54.270;12.470;2022-07-05T08:19:55;101937.13;;;18.37;100.00
19236;BME280;9752;54.270;12.470;2022-07-05T08:25:14;101945.00;;;17.65;100.00
19236;BME280;9752;54.270;12.470;2022-07-05T08:30:18;101941.06;;;18.47;100.00
19236;BME280;9752;54.270;12.470;2022-07-05T08:35:20;101952.34;;;18.44;100.00
19236;BME280;9752;54.270;12.470;2022-07-05T08:40:26;101941.28;;;18.14;100.00
19236;BME280;9752;54.270;12.470;2022-07-05T08:45:33;101945.50;;;18.10;100.00
19236;BME280;9752;54.270;12.470;2022-07-05T08:50:37;101967.75;;;18.37;100.00
19236;BME280;9752;54.270;12.470;2022-07-05T08:55:40;101960.94;;;17.86;100.00
19236;BME280;9752;54.270;12.470;2022-07-05T09:00:44;101948.97;;;18.66;100.00
19236;BME280;9752;54.270;12.470;2022-07-05T09:05:46;101961.94;;;18.44;100.00
19236;BME280;9752;54.270;12.470;2022-07-05T09:10:49;101970.56;;;18.22;100.00
19236;BME280;9752;54.270;12.470;2022-07-05T09:15:53;101974.31;;;18.09;100.00
19236;BME280;9752;54.270;12.470;2022-07-05T09:21:11;101971.34;;;18.96;100.00
19236;BME280;9752;54.270;12.470;2022-07-05T09:26:13;101966.69;;;18.70;100.00
19236;BME280;9752;54.270;12.470;2022-07-05T09:31:25;101973.88;;;19.33;100.00
19236;BME280;9752;54.270;12.470;2022-07-05T09:36:46;101968.44;;;19.49;100.00
19236;BME280;9752;54.270;12.470;2022-07-05T09:41:48;101967.59;;;19.10;100.00
19236;BME280;9752;54.270;12.470;2022-07-05T09:47:06;101976.22;;;19.46;100.00
19236;BME280;9752;54.270;12.470;2022-07-05T09:52:08;101970.72;;;19.42;100.00
19236;BME280;9752;54.270;12.470;2022-07-05T09:57:24;101975.09;;;19.41;100.00
19236;BME280;9752;54.270;12.470;2022-07-05T10:02:36;101972.34;;;19.38;100.00
19236;BME280;9752;54.270;12.470;2022-07-05T10:07:39;101983.41;;;19.50;100.00
19236;BME280;9752;54.270;12.470;2022-07-05T10:12:43;101978.28;;;19.75;100.00
19236;BME280;9752;54.270;12.470;2022-07-05T10:17:50;101978.53;;;20.02;100.00
19236;BME280;9752;54.270;12.470;2022-07-05T10:22:55;101995.59;;;19.48;100.00
19236;BME280;9752;54.270;12.470;2022-07-05T10:27:58;101989.13;;;20.03;100.00
19236;BME280;9752;54.270;12.470;2022-07-05T10:33:03;101990.47;;;19.73;100.00
19236;BME280;9752;54.270;12.470;2022-07-05T10:38:08;101998.38;;;19.73;100.00
19236;BME280;9752;54.270;12.470;2022-07-05T10:43:13;101999.94;;;19.88;100.00
19236;BME280;9752;54.270;12.470;2022-07-05T10:48:19;101995.78;;;19.53;100.00
19236;BME280;9752;54.270;12.470;2022-07-05T10:53:22;101996.28;;;19.85;100.00
19236;BME280;9752;54.270;12.470;2022-07-05T10:58:31;101997.41;;;19.92;100.00
19236;BME280;9752;54.270;12.470;2022-07-05T11:03:35;101976.22;;;19.46;100.00
19236;BME280;9752;54.270;12.470;2022-07-05T11:14:31;101980.66;;;19.89;100.00
19236;BME280;9752;54.270;12.470;2022-07-05T11:19:35;101980.97;;;19.76;100.00
19236;BME280;9752;54.270;12.470;2022-07-05T11:24:57;101975.50;;;20.14;100.00
19236;BME280;9752;54.270;12.470;2022-07-05T11:29:59;101971.94;;;19.91;100.00
19236;BME280;9752;54.270;12.470;2022-07-05T11:35:14;101964.06;;;20.58;100.00
19236;BME280;9752;54.270;12.470;2022-07-05T11:40:28;101983.81;;;20.24;100.00
19236;BME280;9752;54.270;12.470;2022-07-05T11:45:30;101979.63;;;20.52;100.00
19236;BME280;9752;54.270;12.470;2022-07-05T11:50:34;101976.75;;;20.46;100.00
19236;BME280;9752;54.270;12.470;2022-07-05T11:55:36;101976.00;;;20.05;100.00
19236;BME280;9752;54.270;12.470;2022-07-05T12:00:38;101984.75;;;20.70;100.00
19236;BME280;9752;54.270;12.470;2022-07-05T12:05:42;101970.00;;;20.53;100.00
19236;BME280;9752;54.270;12.470;2022-07-05T12:10:45;101979.03;;;20.37;100.00
19236;BME280;9752;54.270;12.470;2022-07-05T12:16:06;101976.50;;;20.17;100.00
19236;BME280;9752;54.270;12.470;2022-07-05T12:21:13;101974.13;;;20.46;100.00
19236;BME280;9752;54.270;12.470;2022-07-05T12:26:16;101990.81;;;19.80;100.00
19236;BME280;9752;54.270;12.470;2022-07-05T12:31:19;101988.59;;;20.12;100.00
19236;BME280;9752;54.270;12.470;2022-07-05T12:36:23;101992.66;;;20.94;100.00
19236;BME280;9752;54.270;12.470;2022-07-05T12:41:26;101975.09;;;20.95;100.00
19236;BME280;9752;54.270;12.470;2022-07-05T12:46:35;101973.00;;;20.86;100.00
19236;BME280;9752;54.270;12.470;2022-07-05T12:51:40;101979.41;;;20.69;100.00
19236;BME280;9752;54.270;12.470;2022-07-05T12:56:47;101983.22;;;20.32;100.00
19236;BME280;9752;54.270;12.470;2022-07-05T13:02:06;101995.38;;;20.05;100.00
19236;BME280;9752;54.270;12.470;2022-07-05T13:07:09;101978.84;;;20.09;100.00
19236;BME280;9752;54.270;12.470;2022-07-05T13:12:12;101987.50;;;19.84;100.00
19236;BME280;9752;54.270;12.470;2022-07-05T13:17:16;101980.47;;;20.28;100.00
19236;BME280;9752;54.270;12.470;2022-07-05T13:22:19;101974.97;;;20.22;100.00
19236;BME280;9752;54.270;12.470;2022-07-05T13:27:21;101965.84;;;21.32;100.00
19236;BME280;9752;54.270;12.470;2022-07-05T13:32:23;101983.22;;;20.32;100.00
19236;BME280;9752;54.270;12.470;2022-07-05T13:37:27;101977.03;;;20.31;100.00
19236;BME280;9752;54.270;12.470;2022-07-05T13:42:28;101976.75;;;20.69;100.00
19236;BME280;9752;54.270;12.470;2022-07-05T13:47:30;101968.72;;;20.65;100.00
19236;BME280;9752;54.270;12.470;2022-07-05T13:52:33;101975.94;;;20.47;100.00
19236;BME280;9752;54.270;12.470;2022-07-05T13:57:35;101987.16;;;20.88;100.00
19236;BME280;9752;54.270;12.470;2022-07-05T14:02:37;101982.44;;;20.79;100.00
19236;BME280;9752;54.270;12.470;2022-07-05T14:07:40;102000.59;;;20.49;100.00
19236;BME280;9752;54.270;12.470;2022-07-05T14:12:41;101979.66;;;21.49;100.00
19236;BME280;9752;54.270;12.470;2022-07-05T14:17:43;101995.63;;;21.52;100.00
19236;BME280;9752;54.270;12.470;2022-07-05T14:22:46;101997.16;;;21.98;100.00
19236;BME280;9752;54.270;12.470;2022-07-05T14:27:48;101973.50;;;22.58;100.00
19236;BME280;9752;54.270;12.470;2022-07-05T14:32:50;101985.66;;;22.25;100.00
19236;BME280;9752;54.270;12.470;2022-07-05T14:37:53;101972.84;;;22.66;100.00
19236;BME280;9752;54.270;12.470;2022-07-05T14:42:55;101992.88;;;22.29;100.00
19236;BME280;9752;54.270;12.470;2022-07-05T14:47:56;101972.63;;;20.99;100.00
19236;BME280;9752;54.270;12.470;2022-07-05T14:53:00;101971.78;;;20.31;100.00
19236;BME280;9752;54.270;12.470;2022-07-05T14:58:06;101974.03;;;19.99;100.00
19236;BME280;9752;54.270;12.470;2022-07-05T15:03:07;101976.03;;;20.27;100.00
19236;BME280;9752;54.270;12.470;2022-07-05T15:08:11;101975.31;;;21.25;100.00
19236;BME280;9752;54.270;12.470;2022-07-05T15:13:13;101982.28;;;21.23;100.00
19236;BME280;9752;54.270;12.470;2022-07-05T15:18:14;101997.44;;;20.14;100.00
19236;BME280;9752;54.270;12.470;2022-07-05T15:23:18;101990.03;;;19.62;100.00
19236;BME280;9752;54.270;12.470;2022-07-05T15:28:19;101969.78;;;20.25;100.00
19236;BME280;9752;54.270;12.470;2022-07-05T15:33:21;101987.84;;;21.82;100.00
19236;BME280;9752;54.270;12.470;2022-07-05T15:38:30;101984.03;;;24.22;100.00
19236;BME280;9752;54.270;12.470;2022-07-05T15:43:33;101982.66;;;24.38;100.00
19236;BME280;9752;54.270;12.470;2022-07-05T15:48:35;101976.09;;;24.22;100.00
19236;BME280;9752;54.270;12.470;2022-07-05T15:53:38;101984.03;;;24.22;100.00
19236;BME280;9752;54.270;12.470;2022-07-05T15:58:40;101979.94;;;23.97;100.00
19236;BME280;9752;54.270;12.470;2022-07-05T16:03:42;101974.50;;;25.61;100.00
19236;BME280;9752;54.270;12.470;2022-07-05T16:08:45;101966.78;;;24.41;100.00
19236;BME280;9752;54.270;12.470;2022-07-05T16:13:46;101969.28;;;25.19;100.00
19236;BME280;9752;54.270;12.470;2022-07-05T16:18:48;101984.88;;;21.73;100.00
19236;BME280;9752;54.270;12.470;2022-07-05T16:23:51;101983.25;;;22.31;100.00
19236;BME280;9752;54.270;12.470;2022-07-05T16:28:53;101976.78;;;22.22;100.00
19236;BME280;9752;54.270;12.470;2022-07-05T16:33:55;101983.69;;;20.21;100.00
19236;BME280;9752;54.270;12.470;2022-07-05T16:38:58;101983.19;;;19.86;100.00
19236;BME280;9752;54.270;12.470;2022-07-05T16:44:02;101979.13;;;19.74;100.00
19236;BME280;9752;54.270;12.470;2022-07-05T16:49:04;101972.94;;;19.11;100.00
19236;BME280;9752;54.270;12.470;2022-07-05T16:54:07;101965.78;;;22.96;100.00
19236;BME280;9752;54.270;12.470;2022-07-05T16:59:09;101961.00;;;23.82;100.00
19236;BME280;9752;54.270;12.470;2022-07-05T17:04:10;101966.03;;;21.89;100.00
19236;BME280;9752;54.270;12.470;2022-07-05T17:09:13;101958.09;;;24.09;100.00
19236;BME280;9752;54.270;12.470;2022-07-05T17:14:15;101958.72;;;20.57;100.00
19236;BME280;9752;54.270;12.470;2022-07-05T17:19:17;101962.06;;;22.29;100.00
19236;BME280;9752;54.270;12.470;2022-07-05T17:24:20;101963.31;;;19.53;100.00
19236;BME280;9752;54.270;12.470;2022-07-05T17:29:22;101971.38;;;18.58;100.00
19236;BME280;9752;54.270;12.470;2022-07-05T17:34:24;101970.13;;;18.50;100.00
19236;BME280;9752;54.270;12.470;2022-07-05T17:39:27;101955.88;;;20.07;100.00
19236;BME280;9752;54.270;12.470;2022-07-05T17:44:29;101951.72;;;20.35;100.00
19236;BME280;9752;54.270;12.470;2022-07-05T17:49:31;101955.91;;;23.56;100.00
19236;BME280;9752;54.270;12.470;2022-07-05T17:54:34;101955.53;;;20.20;100.00
19236;BME280;9752;54.270;12.470;2022-07-05T17:59:36;101953.69;;;18.93;100.00
19236;BME280;9752;54.270;12.470;2022-07-05T18:04:37;101948.09;;;19.05;100.00
19236;BME280;9752;54.270;12.470;2022-07-05T18:09:41;101951.31;;;18.41;100.00
19236;BME280;9752;54.270;12.470;2022-07-05T18:14:43;101953.59;;;18.15;100.00
19236;BME280;9752;54.270;12.470;2022-07-05T18:19:44;101945.94;;;18.02;100.00
19236;BME280;9752;54.270;12.470;2022-07-05T18:24:48;101944.59;;;17.74;100.00
19236;BME280;9752;54.270;12.470;2022-07-05T18:29:50;101944.41;;;17.53;100.00
19236;BME280;9752;54.270;12.470;2022-07-05T18:34:52;101939.28;;;17.38;100.00
19236;BME280;9752;54.270;12.470;2022-07-05T18:39:55;101941.91;;;17.38;100.00
19236;BME280;9752;54.270;12.470;2022-07-05T18:44:57;101942.25;;;19.95;100.00
19236;BME280;9752;54.270;12.470;2022-07-05T18:49:58;101945.94;;;18.02;100.00
19236;BME280;9752;54.270;12.470;2022-07-05T18:55:02;101961.94;;;17.54;100.00
19236;BME280;9752;54.270;12.470;2022-07-05T19:00:06;101958.16;;;17.31;100.00
19236;BME280;9752;54.270;12.470;2022-07-05T19:05:08;101945.25;;;17.17;100.00
19236;BME280;9752;54.270;12.470;2022-07-05T19:10:11;101953.09;;;17.01;100.00
19236;BME280;9752;54.270;12.470;2022-07-05T19:15:30;101944.00;;;16.78;100.00
19236;BME280;9752;54.270;12.470;2022-07-05T19:20:32;101942.78;;;16.55;100.00
19236;BME280;9752;54.270;12.470;2022-07-05T19:25:35;101940.03;;;16.37;100.00
19236;BME280;9752;54.270;12.470;2022-07-05T19:30:37;101945.97;;;16.18;100.00
19236;BME280;9752;54.270;12.470;2022-07-05T19:35:39;101943.59;;;15.91;100.00
19236;BME280;9752;54.270;12.470;2022-07-05T19:40:43;101947.88;;;15.74;100.00
19236;BME280;9752;54.270;12.470;2022-07-05T19:45:46;101952.63;;;15.67;100.00
19236;BME280;9752;54.270;12.470;2022-07-05T19:50:48;101948.13;;;15.64;100.00
19236;BME280;9752;54.270;12.470;2022-07-05T19:55:52;101953.00;;;15.73;100.00
19236;BME280;9752;54.270;12.470;2022-07-05T20:00:54;101949.41;;;15.71;100.00
19236;BME280;9752;54.270;12.470;2022-07-05T20:05:55;101958.97;;;15.85;100.00
19236;BME280;9752;54.270;12.470;2022-07-05T20:10:59;101951.94;;;15.84;100.00
19236;BME280;9752;54.270;12.470;2022-07-05T20:16:01;101960.50;;;15.81;100.00
19236;BME280;9752;54.270;12.470;2022-07-05T20:21:02;101960.34;;;15.78;100.00
19236;BME280;9752;54.270;12.470;2022-07-05T20:26:05;101953.53;;;15.82;100.00
19236;BME280;9752;54.270;12.470;2022-07-05T20:31:07;101956.00;;;15.79;100.00
19236;BME280;9752;54.270;12.470;2022-07-05T20:36:09;101949.59;;;15.74;100.00
19236;BME280;9752;54.270;12.470;2022-07-05T20:41:12;101948.88;;;15.61;100.00
19236;BME280;9752;54.270;12.470;2022-07-05T20:46:14;101954.19;;;15.48;100.00
19236;BME280;9752;54.270;12.470;2022-07-05T20:51:16;101954.16;;;15.18;100.00
19236;BME280;9752;54.270;12.470;2022-07-05T20:56:19;101945.69;;;15.22;100.00
19236;BME280;9752;54.270;12.470;2022-07-05T21:01:21;101941.34;;;15.23;100.00
19236;BME280;9752;54.270;12.470;2022-07-05T21:06:22;101944.16;;;15.11;100.00
19236;BME280;9752;54.270;12.470;2022-07-05T21:11:26;101962.66;;;14.86;100.00
19236;BME280;9752;54.270;12.470;2022-07-05T21:16:27;101953.16;;;14.73;100.00
19236;BME280;9752;54.270;12.470;2022-07-05T21:21:30;101946.56;;;14.65;100.00
19236;BME280;9752;54.270;12.470;2022-07-05T21:26:33;101937.22;;;14.69;100.00
19236;BME280;9752;54.270;12.470;2022-07-05T21:31:35;101947.72;;;14.83;100.00
19236;BME280;9752;54.270;12.470;2022-07-05T21:36:38;101953.31;;;14.90;100.00
19236;BME280;9752;54.270;12.470;2022-07-05T21:41:41;101952.06;;;14.01;100.00
19236;BME280;9752;54.270;12.470;2022-07-05T21:46:43;101947.19;;;13.79;100.00
19236;BME280;9752;54.270;12.470;2022-07-05T21:51:45;101943.66;;;13.79;100.00
19236;BME280;9752;54.270;12.470;2022-07-05T21:56:48;101949.78;;;13.79;100.00
19236;BME280;9752;54.270;12.470;2022-07-05T22:01:50;101951.56;;;13.67;100.00
19236;BME280;9752;54.270;12.470;2022-07-05T22:07:10;101958.50;;;13.53;100.00
19236;BME280;9752;54.270;12.470;2022-07-05T22:12:14;101948.44;;;13.33;100.00
19236;BME280;9752;54.270;12.470;2022-07-05T22:17:16;101940.63;;;13.07;100.00
19236;BME280;9752;54.270;12.470;2022-07-05T22:22:18;101938.88;;;12.95;100.00
19236;BME280;9752;54.270;12.470;2022-07-05T22:27:21;101939.47;;;12.91;100.00
19236;BME280;9752;54.270;12.470;2022-07-05T22:32:23;101943.53;;;12.62;100.00
19236;BME280;9752;54.270;12.470;2022-07-05T22:37:25;101947.31;;;12.42;100.00
19236;BME280;9752;54.270;12.470;2022-07-05T22:42:28;101941.47;;;12.33;100.00
19236;BME280;9752;54.270;12.470;2022-07-05T22:47:29;101939.81;;;12.09;100.00
19236;BME280;9752;54.270;12.470;2022-07-05T22:52:31;101926.16;;;12.00;100.00
19236;BME280;9752;54.270;12.470;2022-07-05T22:57:34;101934.03;;;12.14;100.00
19236;BME280;9752;54.270;12.470;2022-07-05T23:02:36;101935.50;;;12.10;100.00
19236;BME280;9752;54.270;12.470;2022-07-05T23:07:38;101929.72;;;12.26;100.00
19236;BME280;9752;54.270;12.470;2022-07-05T23:12:41;101939.66;;;12.20;100.00
19236;BME280;9752;54.270;12.470;2022-07-05T23:17:43;101930.53;;;12.13;100.00
19236;BME280;9752;54.270;12.470;2022-07-05T23:22:44;101934.38;;;12.06;100.00
19236;BME280;9752;54.270;12.470;2022-07-05T23:27:47;101938.44;;;11.79;100.00
19236;BME280;9752;54.270;12.470;2022-07-05T23:32:49;101935.72;;;11.78;100.00
19236;BME280;9752;54.270;12.470;2022-07-05T23:37:51;101922.63;;;11.88;100.00
19236;BME280;9752;54.270;12.470;2022-07-05T23:42:54;101924.97;;;12.57;100.00
19236;BME280;9752;54.270;12.470;2022-07-05T23:47:56;101922.38;;;12.82;100.00
19236;BME280;9752;54.270;12.470;2022-07-05T23:52:58;101917.31;;;12.97;100.00
19236;BME280;9752;54.270;12.470;2022-07-05T23:58:01;101906.44;;;13.03;100.00
